createdAt,value
2024-04-30T00:01:01.526Z,9.57
2024-04-30T00:03:28.944Z,9.60
2024-04-30T00:05:58.776Z,14.38
2024-04-30T00:08:26.068Z,9.57
2024-04-30T00:10:55.962Z,14.25
2024-04-30T00:13:23.171Z,8.57
2024-04-30T00:15:55.821Z,13.45
2024-04-30T00:18:23.085Z,17.40
2024-04-30T00:20:52.883Z,10.85
2024-04-30T00:23:20.085Z,15.98
2024-04-30T00:25:49.959Z,11.95
2024-04-30T00:28:17.240Z,14.95
2024-04-30T00:30:47.084Z,11.10
2024-04-30T00:33:16.896Z,7.13
2024-04-30T00:35:46.976Z,10.98
2024-04-30T00:38:14.146Z,15.25
2024-04-30T00:40:44.054Z,12.80
2024-04-30T00:43:11.299Z,11.85
2024-04-30T00:45:41.099Z,6.05
2024-04-30T00:48:09.228Z,12.40
2024-04-30T00:50:43.800Z,15.85
2024-04-30T00:53:11.008Z,19.63
2024-04-30T00:55:41.850Z,13.00
2024-04-30T00:58:09.070Z,10.02
2024-04-30T01:00:38.948Z,10.70
2024-04-30T01:03:06.722Z,15.48
2024-04-30T01:05:36.527Z,17.90
2024-04-30T01:08:06.910Z,13.32
2024-04-30T01:10:36.998Z,9.13
2024-04-30T01:13:05.411Z,11.40
2024-04-30T01:15:35.766Z,15.25
2024-04-30T01:18:03.003Z,12.98
2024-04-30T01:20:32.843Z,10.68
2024-04-30T01:23:02.689Z,7.70
2024-04-30T01:25:32.666Z,13.95
2024-04-30T01:27:59.936Z,11.10
2024-04-30T01:30:29.701Z,11.43
2024-04-30T01:32:57.006Z,13.30
2024-04-30T01:35:26.903Z,13.38
2024-04-30T01:37:54.078Z,16.92
2024-04-30T01:40:26.564Z,11.50
2024-04-30T01:42:53.717Z,7.63
2024-04-30T01:45:23.545Z,11.10
2024-04-30T01:47:55.677Z,11.40
2024-04-30T01:50:25.479Z,15.98
2024-04-30T01:52:52.611Z,16.50
2024-04-30T01:55:22.425Z,16.90
2024-04-30T01:57:52.205Z,12.63
2024-04-30T02:00:22.038Z,17.48
2024-04-30T02:02:49.200Z,14.50
2024-04-30T02:05:24.839Z,15.75
2024-04-30T02:07:52.969Z,13.10
2024-04-30T02:10:22.804Z,10.65
2024-04-30T02:12:53.546Z,10.55
2024-04-30T02:15:23.280Z,16.13
2024-04-30T02:17:50.741Z,23.45
2024-04-30T02:20:20.597Z,8.23
2024-04-30T02:22:47.749Z,13.30
2024-04-30T02:25:17.750Z,14.82
2024-04-30T02:27:44.924Z,11.98
2024-04-30T02:30:37.978Z,12.52
2024-04-30T02:33:31.909Z,11.35
2024-04-30T02:36:02.939Z,10.43
2024-04-30T02:38:32.896Z,13.52
2024-04-30T02:41:02.701Z,12.85
2024-04-30T02:43:32.826Z,15.65
2024-04-30T02:46:03.632Z,16.05
2024-04-30T02:48:33.439Z,11.45
2024-04-30T02:51:02.444Z,14.05
2024-04-30T02:53:32.437Z,17.02
2024-04-30T02:55:59.611Z,13.25
2024-04-30T02:58:29.444Z,10.27
2024-04-30T03:00:56.632Z,11.82
2024-04-30T03:03:29.892Z,15.95
2024-04-30T03:05:58.184Z,17.58
2024-04-30T03:08:27.976Z,14.57
2024-04-30T03:10:55.684Z,14.30
2024-04-30T03:13:25.559Z,17.85
2024-04-30T03:15:52.762Z,16.67
2024-04-30T03:18:22.584Z,13.35
2024-04-30T03:20:52.424Z,14.35
2024-04-30T03:23:22.194Z,13.25
2024-04-30T03:25:49.330Z,12.35
2024-04-30T03:28:19.156Z,11.25
2024-04-30T03:30:46.304Z,19.30
2024-04-30T03:33:16.216Z,18.70
2024-04-30T03:35:43.424Z,15.88
2024-04-30T03:38:15.872Z,17.75
2024-04-30T03:40:46.597Z,12.07
2024-04-30T03:43:16.463Z,15.50
2024-04-30T03:45:47.581Z,19.17
2024-04-30T03:48:17.485Z,19.98
2024-04-30T03:50:48.357Z,15.02
2024-04-30T03:53:18.158Z,18.27
2024-04-30T03:55:47.918Z,14.18
2024-04-30T03:58:15.118Z,12.88
2024-04-30T04:00:44.924Z,11.88
2024-04-30T04:03:12.139Z,13.90
2024-04-30T04:05:42.254Z,15.00
2024-04-30T04:08:09.457Z,17.20
2024-04-30T04:10:42.829Z,18.67
2024-04-30T04:13:29.006Z,19.75
2024-04-30T04:15:58.811Z,13.57
2024-04-30T04:18:28.836Z,18.25
2024-04-30T04:20:58.776Z,14.80
2024-04-30T04:23:25.892Z,13.48
2024-04-30T04:25:58.306Z,21.08
2024-04-30T04:28:25.514Z,20.40
2024-04-30T04:30:55.299Z,18.33
2024-04-30T04:33:22.519Z,21.05
2024-04-30T04:35:52.335Z,12.43
2024-04-30T04:38:22.958Z,15.10
2024-04-30T04:40:50.159Z,14.38
2024-04-30T04:43:22.656Z,11.90
2024-04-30T04:45:49.801Z,15.93
2024-04-30T04:48:19.679Z,15.95
2024-04-30T04:50:46.898Z,13.90
2024-04-30T04:53:16.696Z,11.95
2024-04-30T04:55:43.911Z,12.90
2024-04-30T04:58:13.814Z,16.02
2024-04-30T05:00:43.635Z,13.05
2024-04-30T05:03:13.472Z,17.60
2024-04-30T05:05:40.665Z,18.17
2024-04-30T05:08:10.526Z,15.55
2024-04-30T05:10:37.855Z,29.38
2024-04-30T05:13:08.006Z,23.15
2024-04-30T05:15:35.151Z,21.25
2024-04-30T05:18:08.397Z,19.25
2024-04-30T05:20:35.646Z,14.02
2024-04-30T05:23:05.575Z,18.63
2024-04-30T05:25:32.923Z,13.65
2024-04-30T05:28:02.905Z,13.98
2024-04-30T05:30:30.302Z,10.65
2024-04-30T05:33:00.212Z,13.00
2024-04-30T05:35:30.075Z,12.85
2024-04-30T05:37:59.870Z,9.75
2024-04-30T05:40:27.058Z,12.05
2024-04-30T05:42:57.500Z,12.90
2024-04-30T05:45:24.675Z,12.60
2024-04-30T05:47:54.511Z,15.77
2024-04-30T05:50:22.017Z,14.85
2024-04-30T05:52:54.480Z,8.95
2024-04-30T05:55:21.664Z,10.35
2024-04-30T05:57:51.552Z,12.77
2024-04-30T06:00:19.666Z,8.65
2024-04-30T06:02:49.402Z,15.40
2024-04-30T06:05:16.741Z,14.88
2024-04-30T06:07:46.793Z,14.98
2024-04-30T06:10:16.802Z,8.75
2024-04-30T06:12:46.609Z,10.15
2024-04-30T06:15:14.004Z,17.23
2024-04-30T06:17:43.904Z,15.90
2024-04-30T06:20:11.185Z,15.25
2024-04-30T06:22:41.070Z,22.25
2024-04-30T06:25:08.387Z,14.75
2024-04-30T06:27:40.885Z,14.80
2024-04-30T06:30:08.704Z,25.13
2024-04-30T06:32:38.551Z,23.58
2024-04-30T06:35:09.346Z,16.10
2024-04-30T06:37:36.725Z,20.85
2024-04-30T06:40:06.948Z,16.60
2024-04-30T06:42:34.840Z,9.32
2024-04-30T06:45:07.946Z,10.15
2024-04-30T06:47:35.156Z,10.97
2024-04-30T06:50:05.027Z,7.85
2024-04-30T06:52:32.332Z,10.50
2024-04-30T06:55:02.236Z,15.63
2024-04-30T06:57:29.463Z,11.88
2024-04-30T06:59:59.434Z,17.55
2024-04-30T07:02:29.331Z,11.48
2024-04-30T07:04:59.318Z,13.40
2024-04-30T07:07:26.552Z,9.32
2024-04-30T07:09:56.389Z,7.88
2024-04-30T07:12:23.617Z,11.07
2024-04-30T07:14:53.459Z,7.10
2024-04-30T07:17:20.704Z,9.55
2024-04-30T07:19:53.260Z,7.88
2024-04-30T07:22:20.695Z,19.48
2024-04-30T07:24:50.557Z,13.45
2024-04-30T07:27:17.854Z,8.57
2024-04-30T07:29:47.830Z,5.22
2024-04-30T07:32:15.026Z,4.90
2024-04-30T07:34:44.959Z,6.10
2024-04-30T07:37:14.862Z,6.00
2024-04-30T07:39:44.773Z,9.00
2024-04-30T07:42:11.903Z,6.45
2024-04-30T07:44:41.735Z,5.47
2024-04-30T07:47:09.021Z,5.40
2024-04-30T07:49:39.118Z,10.80
2024-04-30T07:52:06.864Z,7.32
2024-04-30T07:54:39.295Z,8.10
2024-04-30T07:57:06.678Z,15.27
2024-04-30T07:59:36.472Z,6.88
2024-04-30T08:02:04.208Z,8.05
2024-04-30T08:04:34.060Z,3.58
2024-04-30T08:07:01.257Z,5.03
2024-04-30T08:09:31.068Z,12.40
2024-04-30T08:12:01.017Z,6.18
2024-04-30T08:14:36.066Z,6.43
2024-04-30T08:17:06.624Z,4.18
2024-04-30T08:19:33.936Z,3.33
2024-04-30T08:22:03.798Z,7.43
2024-04-30T08:24:33.570Z,4.88
2024-04-30T08:27:03.579Z,4.05
2024-04-30T08:29:33.362Z,5.95
2024-04-30T08:32:00.989Z,3.38
2024-04-30T08:34:30.833Z,4.13
2024-04-30T08:37:01.184Z,6.85
2024-04-30T08:39:28.335Z,9.57
2024-04-30T08:41:59.501Z,11.20
2024-04-30T08:44:31.192Z,3.67
2024-04-30T08:47:03.847Z,14.85
2024-04-30T08:49:38.740Z,4.95
2024-04-30T08:52:16.389Z,9.13
2024-04-30T08:54:43.872Z,2.17
2024-04-30T08:57:13.642Z,10.02
2024-04-30T08:59:43.431Z,7.55
2024-04-30T09:02:14.359Z,8.50
2024-04-30T09:04:43.145Z,7.38
2024-04-30T09:07:13.358Z,5.20
2024-04-30T09:09:40.531Z,6.20
2024-04-30T09:12:10.909Z,7.32
2024-04-30T09:14:46.023Z,7.07
2024-04-30T09:17:15.841Z,8.57
2024-04-30T09:19:43.059Z,5.70
2024-04-30T09:22:12.957Z,7.78
2024-04-30T09:24:47.561Z,8.73
2024-04-30T09:27:17.769Z,4.30
2024-04-30T09:29:47.571Z,4.00
2024-04-30T09:32:18.502Z,3.13
2024-04-30T09:34:46.362Z,5.38
2024-04-30T09:37:22.240Z,6.00
2024-04-30T09:39:51.055Z,3.60
2024-04-30T09:42:21.312Z,3.00
2024-04-30T09:44:53.770Z,6.38
2024-04-30T09:49:54.059Z,6.72
2024-04-30T09:52:25.058Z,4.57
2024-04-30T09:54:59.081Z,7.78
2024-04-30T09:57:28.481Z,2.50
2024-04-30T10:00:01.158Z,4.45
2024-04-30T10:02:31.629Z,4.18
2024-04-30T10:05:03.771Z,2.65
2024-04-30T10:07:32.528Z,6.88
2024-04-30T10:10:02.308Z,2.53
2024-04-30T10:12:31.415Z,3.85
2024-04-30T10:15:15.310Z,6.55
2024-04-30T10:17:42.874Z,4.97
2024-04-30T10:20:13.195Z,5.38
2024-04-30T10:22:44.228Z,3.55
2024-04-30T10:25:24.039Z,3.28
2024-04-30T10:27:51.875Z,4.00
2024-04-30T10:30:28.096Z,8.35
2024-04-30T10:32:56.446Z,3.83
2024-04-30T10:35:26.339Z,8.55
2024-04-30T10:37:53.673Z,3.55
2024-04-30T10:40:23.679Z,3.15
2024-04-30T10:42:50.871Z,2.85
2024-04-30T10:45:29.235Z,5.70
2024-04-30T10:47:56.556Z,4.07
2024-04-30T10:50:29.929Z,4.22
2024-04-30T10:53:03.653Z,3.10
2024-04-30T10:55:34.225Z,4.28
2024-04-30T10:58:11.280Z,8.15
2024-04-30T11:00:49.864Z,2.10
2024-04-30T11:03:23.710Z,3.63
2024-04-30T11:06:00.652Z,8.07
2024-04-30T11:08:32.779Z,6.00
2024-04-30T11:11:10.481Z,5.95
2024-04-30T11:13:40.492Z,3.22
2024-04-30T11:16:15.559Z,8.73
2024-04-30T11:18:46.382Z,5.18
2024-04-30T11:21:13.758Z,4.20
2024-04-30T11:23:43.523Z,2.25
2024-04-30T11:26:10.668Z,2.28
2024-04-30T11:28:40.499Z,5.13
2024-04-30T11:31:10.476Z,4.45
2024-04-30T11:33:40.298Z,2.90
2024-04-30T11:36:09.070Z,1.90
2024-04-30T11:38:38.949Z,3.88
2024-04-30T11:41:06.181Z,4.57
2024-04-30T11:43:36.557Z,2.05
2024-04-30T11:46:03.943Z,1.30
2024-04-30T11:48:36.930Z,1.80
2024-04-30T11:51:04.514Z,6.28
2024-04-30T11:53:36.722Z,5.65
2024-04-30T11:58:34.904Z,5.45
2024-04-30T12:01:02.117Z,4.78
2024-04-30T12:03:31.938Z,3.65
2024-04-30T12:06:04.248Z,3.05
2024-04-30T12:08:38.041Z,3.85
2024-04-30T12:11:05.375Z,5.03
2024-04-30T12:13:35.367Z,1.27
2024-04-30T12:16:02.556Z,3.45
2024-04-30T12:18:32.394Z,7.32
2024-04-30T12:20:59.684Z,4.75
2024-04-30T12:23:32.099Z,5.40
2024-04-30T12:25:59.290Z,3.53
2024-04-30T12:28:29.109Z,3.05
2024-04-30T12:30:57.712Z,1.73
2024-04-30T12:33:29.785Z,1.02
2024-04-30T12:35:57.071Z,1.35
2024-04-30T12:38:26.948Z,6.10
2024-04-30T12:40:56.723Z,5.30
2024-04-30T12:43:26.869Z,3.00
2024-04-30T12:45:55.135Z,1.48
2024-04-30T12:48:25.054Z,3.35
2024-04-30T12:50:52.331Z,2.15
2024-04-30T12:53:22.120Z,2.03
2024-04-30T12:55:49.404Z,3.75
2024-04-30T12:58:23.510Z,6.38
2024-04-30T13:00:54.371Z,1.70
2024-04-30T13:03:24.209Z,5.88
2024-04-30T13:05:54.308Z,1.48
2024-04-30T13:08:22.271Z,8.40
2024-04-30T13:10:52.702Z,5.38
2024-04-30T13:13:22.656Z,4.18
2024-04-30T13:15:52.476Z,1.30
2024-04-30T13:18:19.799Z,1.95
2024-04-30T13:20:49.634Z,2.17
2024-04-30T13:23:16.810Z,4.47
2024-04-30T13:25:46.931Z,5.22
2024-04-30T13:28:14.116Z,2.40
2024-04-30T13:30:46.685Z,1.58
2024-04-30T13:33:15.332Z,3.08
2024-04-30T13:35:45.242Z,3.97
2024-04-30T13:38:12.484Z,2.35
2024-04-30T13:40:42.335Z,0.90
2024-04-30T13:43:09.773Z,3.80
2024-04-30T13:45:39.587Z,7.50
2024-04-30T13:48:09.782Z,5.03
2024-04-30T13:50:39.679Z,1.73
2024-04-30T13:53:06.963Z,2.38
2024-04-30T13:55:36.905Z,0.93
2024-04-30T13:58:05.356Z,3.42
2024-04-30T14:00:35.152Z,3.65
2024-04-30T14:03:03.278Z,2.60
2024-04-30T14:05:38.680Z,4.07
2024-04-30T14:08:06.814Z,5.07
2024-04-30T14:10:39.933Z,6.80
2024-04-30T14:13:07.435Z,8.63
2024-04-30T14:15:37.272Z,4.65
2024-04-30T14:18:07.292Z,5.50
2024-04-30T14:20:40.934Z,2.90
2024-04-30T14:23:08.126Z,3.90
2024-04-30T14:25:37.941Z,8.90
2024-04-30T14:28:06.589Z,5.60
2024-04-30T14:30:37.259Z,1.70
2024-04-30T14:33:04.890Z,2.80
2024-04-30T14:35:54.806Z,15.50
2024-04-30T14:38:24.592Z,4.00
2024-04-30T14:40:54.942Z,1.38
2024-04-30T14:43:22.180Z,10.85
2024-04-30T14:45:51.945Z,3.55
2024-04-30T14:48:21.920Z,7.13
2024-04-30T14:50:55.253Z,2.85
2024-04-30T14:53:25.265Z,5.65
2024-04-30T14:55:55.024Z,13.48
2024-04-30T14:58:22.275Z,5.68
2024-04-30T15:00:52.086Z,4.20
2024-04-30T15:03:23.771Z,3.08
2024-04-30T15:05:54.310Z,4.10
2024-04-30T15:08:22.749Z,3.13
2024-04-30T15:10:55.376Z,3.47
2024-04-30T15:13:22.610Z,3.00
2024-04-30T15:15:52.432Z,3.30
2024-04-30T15:18:22.555Z,2.75
2024-04-30T15:20:49.835Z,1.65
2024-04-30T15:23:19.659Z,2.97
2024-04-30T15:25:49.561Z,4.78
2024-04-30T15:28:19.401Z,6.07
2024-04-30T15:30:49.204Z,5.10
2024-04-30T15:33:16.428Z,5.00
2024-04-30T15:35:46.222Z,1.55
2024-04-30T15:38:13.369Z,6.18
2024-04-30T15:40:43.457Z,2.53
2024-04-30T15:43:10.735Z,8.85
2024-04-30T15:45:43.194Z,2.35
2024-04-30T15:48:11.631Z,3.83
2024-04-30T15:50:41.642Z,2.42
2024-04-30T15:53:08.804Z,5.78
2024-04-30T15:55:38.646Z,1.38
2024-04-30T15:58:05.865Z,1.25
2024-04-30T16:00:35.854Z,3.10
2024-04-30T16:03:08.719Z,1.92
2024-04-30T16:05:35.910Z,4.15
2024-04-30T16:08:05.900Z,1.65
2024-04-30T16:10:35.268Z,25.65
2024-04-30T16:13:05.107Z,3.47
2024-04-30T16:15:32.249Z,3.28
2024-04-30T16:18:03.792Z,3.90
2024-04-30T16:20:33.721Z,6.40
2024-04-30T16:23:03.482Z,2.35
2024-04-30T16:25:31.942Z,1.70
2024-04-30T16:28:04.376Z,15.57
2024-04-30T16:30:34.223Z,2.95
2024-04-30T16:33:01.468Z,2.38
2024-04-30T16:35:31.330Z,3.30
2024-04-30T16:38:01.297Z,4.03
2024-04-30T16:40:31.165Z,6.18
2024-04-30T16:42:58.537Z,3.88
2024-04-30T16:45:28.397Z,7.47
2024-04-30T16:47:59.331Z,4.90
2024-04-30T16:50:26.576Z,8.40
2024-04-30T16:52:59.091Z,6.45
2024-04-30T16:55:29.250Z,6.00
2024-04-30T16:57:59.849Z,1.48
2024-04-30T17:00:27.151Z,4.13
2024-04-30T17:02:56.923Z,6.03
2024-04-30T17:05:26.147Z,4.40
2024-04-30T17:07:55.922Z,2.30
2024-04-30T17:10:23.200Z,2.33
2024-04-30T17:12:55.615Z,11.20
2024-04-30T17:15:22.882Z,10.57
2024-04-30T17:17:52.757Z,3.15
2024-04-30T17:20:19.958Z,6.65
2024-04-30T17:22:49.775Z,4.40
2024-04-30T17:25:16.925Z,4.18
2024-04-30T17:27:46.752Z,3.17
2024-04-30T17:30:16.755Z,14.93
2024-04-30T17:32:46.593Z,3.00
2024-04-30T17:35:13.908Z,3.65
2024-04-30T17:37:43.695Z,2.28
2024-04-30T17:40:12.308Z,2.55
2024-04-30T17:42:42.218Z,3.80
2024-04-30T17:45:09.764Z,5.22
2024-04-30T17:47:42.301Z,7.43
2024-04-30T17:50:09.784Z,6.10
2024-04-30T17:52:39.532Z,3.80
2024-04-30T17:55:06.904Z,1.92
2024-04-30T17:57:36.750Z,4.53
2024-04-30T18:00:04.372Z,7.50
2024-04-30T18:02:44.456Z,2.10
2024-04-30T18:05:11.724Z,2.28
2024-04-30T18:07:41.599Z,9.18
2024-04-30T18:10:11.007Z,5.43
2024-04-30T18:12:41.939Z,4.25
2024-04-30T18:15:13.266Z,6.50
2024-04-30T18:17:45.768Z,3.25
2024-04-30T18:20:13.043Z,5.03
2024-04-30T18:22:42.867Z,26.80
2024-04-30T18:25:13.155Z,2.78
2024-04-30T18:27:42.992Z,3.83
2024-04-30T18:30:11.214Z,2.70
2024-04-30T18:32:41.022Z,27.65
2024-04-30T18:35:11.223Z,52.28
2024-04-30T18:37:41.894Z,35.10
2024-04-30T18:40:12.882Z,13.77
2024-04-30T18:42:41.066Z,8.15
2024-04-30T18:45:10.987Z,3.17
2024-04-30T18:47:38.290Z,1.85
2024-04-30T18:50:09.216Z,15.80
2024-04-30T18:52:39.084Z,9.35
2024-04-30T18:55:09.327Z,7.85
2024-04-30T18:57:37.159Z,7.65
2024-04-30T19:00:07.475Z,4.75
2024-04-30T19:02:37.290Z,5.60
2024-04-30T19:05:06.498Z,5.20
2024-04-30T19:07:36.682Z,3.92
2024-04-30T19:10:07.356Z,5.07
2024-04-30T19:12:37.241Z,7.70
2024-04-30T19:15:04.860Z,7.28
2024-04-30T19:17:34.747Z,10.65
2024-04-30T19:20:01.969Z,10.18
2024-04-30T19:22:31.776Z,3.38
2024-04-30T19:24:58.940Z,6.82
2024-04-30T19:27:31.874Z,6.80
2024-04-30T19:29:59.048Z,7.83
2024-04-30T19:32:29.144Z,6.75
2024-04-30T19:34:56.405Z,6.22
2024-04-30T19:37:26.161Z,3.22
2024-04-30T19:39:53.401Z,2.00
2024-04-30T19:42:23.485Z,2.72
2024-04-30T19:44:53.367Z,5.35
2024-04-30T19:47:23.165Z,2.88
2024-04-30T19:49:50.582Z,4.63
2024-04-30T19:52:20.450Z,3.88
2024-04-30T19:54:47.656Z,9.25
2024-04-30T19:57:17.551Z,5.38
2024-04-30T19:59:46.612Z,2.92
2024-04-30T20:02:19.128Z,4.68
2024-04-30T20:04:46.509Z,4.65
2024-04-30T20:07:16.429Z,2.40
2024-04-30T20:09:43.873Z,5.78
2024-04-30T20:12:13.715Z,6.10
2024-04-30T20:14:40.898Z,3.13
2024-04-30T20:17:10.988Z,4.47
2024-04-30T20:19:40.769Z,4.53
2024-04-30T20:22:10.738Z,3.67
2024-04-30T20:24:37.949Z,3.50
2024-04-30T20:27:08.604Z,3.67
2024-04-30T20:29:38.397Z,4.82
2024-04-30T20:32:05.993Z,2.50
2024-04-30T20:34:35.827Z,3.60
2024-04-30T20:37:05.699Z,8.60
2024-04-30T20:39:35.618Z,5.35
2024-04-30T20:42:03.422Z,7.63
2024-04-30T20:44:33.337Z,6.50
2024-04-30T20:47:00.520Z,3.67
2024-04-30T20:49:33.468Z,10.23
2024-04-30T20:52:00.834Z,8.83
2024-04-30T20:54:33.477Z,12.15
2024-04-30T20:57:03.286Z,5.90
2024-04-30T20:59:30.510Z,4.85
2024-04-30T21:02:00.451Z,7.05
2024-04-30T21:04:27.828Z,3.78
2024-04-30T21:06:57.769Z,14.70
2024-04-30T21:09:24.958Z,10.90
2024-04-30T21:11:57.393Z,10.40
2024-04-30T21:14:24.645Z,6.93
2024-04-30T21:16:54.467Z,5.80
2024-04-30T21:19:21.881Z,4.75
2024-04-30T21:21:51.754Z,6.25
2024-04-30T21:24:19.069Z,5.43
2024-04-30T21:26:48.871Z,18.50
2024-04-30T21:29:18.682Z,14.63
2024-04-30T21:31:48.464Z,10.63
2024-04-30T21:34:15.651Z,6.05
2024-04-30T21:36:47.095Z,8.23
2024-04-30T21:39:14.627Z,7.03
2024-04-30T21:41:44.535Z,8.52
2024-04-30T21:44:11.664Z,7.13
2024-04-30T21:46:45.703Z,5.40
2024-04-30T21:49:13.313Z,9.32
2024-04-30T21:51:46.296Z,8.43
2024-04-30T21:54:14.111Z,6.97
2024-04-30T21:56:45.495Z,8.73
2024-04-30T21:59:17.106Z,9.43
2024-04-30T22:01:50.126Z,8.70
2024-04-30T22:04:21.616Z,7.78
2024-04-30T22:06:49.211Z,6.82
2024-04-30T22:09:19.382Z,8.38
2024-04-30T22:11:48.212Z,10.77
2024-04-30T22:14:19.233Z,10.82
2024-04-30T22:16:46.477Z,12.25
2024-04-30T22:19:19.015Z,12.00
2024-04-30T22:21:47.547Z,10.70
2024-04-30T22:24:17.472Z,8.57
2024-04-30T22:26:44.694Z,15.70
2024-04-30T22:29:14.543Z,7.15
2024-04-30T22:31:41.735Z,13.02
2024-04-30T22:34:11.807Z,10.35
2024-04-30T22:36:41.658Z,5.90
2024-04-30T22:39:11.483Z,14.27
2024-04-30T22:41:38.633Z,10.82
2024-04-30T22:44:08.606Z,9.98
2024-04-30T22:46:35.802Z,11.50
2024-04-30T22:49:05.804Z,11.23
2024-04-30T22:51:33.926Z,8.80
2024-04-30T22:54:06.351Z,10.23
2024-04-30T22:56:34.709Z,10.70
2024-04-30T22:59:04.764Z,10.73
2024-04-30T23:01:34.814Z,9.38
2024-04-30T23:04:02.235Z,7.40
2024-04-30T23:06:32.519Z,12.93
2024-04-30T23:08:59.723Z,15.38
2024-04-30T23:11:32.134Z,13.15
2024-04-30T23:13:59.331Z,8.50
2024-04-30T23:16:29.131Z,9.70
2024-04-30T23:18:56.295Z,8.07
2024-04-30T23:21:26.143Z,7.20
2024-04-30T23:23:53.413Z,15.40
2024-04-30T23:26:23.302Z,12.23
2024-04-30T23:28:53.907Z,8.88
2024-04-30T23:31:23.712Z,9.98
2024-04-30T23:33:51.710Z,6.63
2024-04-30T23:36:21.783Z,6.15
2024-04-30T23:38:49.187Z,9.68
2024-04-30T23:41:18.968Z,6.80
2024-04-30T23:43:46.148Z,9.98
2024-04-30T23:46:18.597Z,12.95
2024-04-30T23:48:45.798Z,10.25
2024-04-30T23:51:16.170Z,8.20
2024-04-30T23:53:44.120Z,7.03
2024-04-30T23:56:15.448Z,6.03
2024-04-30T23:58:42.676Z,6.38
